Brighton, MI

9:54 AM EDT on May 23, 2015 (GMT -0400)
Oakland County International | | Change Station
CLOSE
Current Station
Airport
Location: Pontiac,
Elevation: 981 ft
Nearby Weather Stations

Elev 981 ft 42.67 °N, 83.42 °W | Updated 1 hour ago

Clear
Clear
54 °F
Feels Like 54 °F
N
5
Wind Variable Wind from South

Today
High -- | Low -- °F
--% Chance of Precip.
Yesterday
High -- | Low -- °F
Precip. -- in
6:06 AM 8:57 PM
Waxing Crescent, 30% visible
Pressure 30.41 in
Visibility 10.0 miles
Clouds Few 20000 ft
Dew Point 36 °F
Humidity 51%
Rainfall 0.00 in
Snow Depth Not available.
UV 3 out of 12
Pollen 9.20 out of 12
Air Quality Not available.
Flu Activity Sporadic
METAR KPTK 231253Z 17004KT 10SM FEW200 12/02 A3040 RMK AO2 SLP296 T01220022

More Conditions Fewer Conditions

Pressure 30.41 in
Visibility 10.0 miles
Clouds Few 20000 ft
Dew Point 36 °F
Humidity 51%
Rainfall 0.00 in
Snow Depth Not available.
UV 3 out of 12
Pollen 9.20 out of 12
Air Quality Not available.
Flu Activity Sporadic
METAR KPTK 231253Z 17004KT 10SM FEW200 12/02 A3040 RMK AO2 SLP296 T01220022

More Conditions Fewer Conditions

10-Day Weather Forecast

Almanac

Astronomy

May. 23, 2015 Rise Set
Actual Time
Civil Twilight
Nautical Twilight
Astronomical Twilight
Moon
Length of Visible Light
Length of Day
Tomorrow will be .
, % of the Moon is Illuminated

Today's Extremes

State Highs State Lows

Community

WunderPhotos

Upload Photos

1,823,467 photos uploaded!

WunderBlogs® & News

Nearby

Air Quality

  Air Quality AQ Index Pollutant
Not available.

Snow Depth

Station Depth Elevation

Earthquake Activity

City Distance Mag. Time & Date
Minimum magnitude displayed is 2.5.

Coastal Water Temperatures

Place Temperature

Stations

Nearby Weather Stations

Station Location Temp. Windchill Dew Point Humidity Wind Precip. Elev Updated Type